sensor_id;sensor_type;location;lat;lon;timestamp;P1;durP1;ratioP1;P2;durP2;ratioP2
48207;SDS011;33997;53.278;9.708;2023-12-14T00:00:03;2.53;;;1.30;;
48207;SDS011;33997;53.278;9.708;2023-12-14T00:02:29;2.60;;;1.40;;
48207;SDS011;33997;53.278;9.708;2023-12-14T00:04:55;2.85;;;1.42;;
48207;SDS011;33997;53.278;9.708;2023-12-14T00:07:20;3.28;;;1.48;;
48207;SDS011;33997;53.278;9.708;2023-12-14T00:09:46;3.45;;;1.17;;
48207;SDS011;33997;53.278;9.708;2023-12-14T00:12:11;2.58;;;1.30;;
48207;SDS011;33997;53.278;9.708;2023-12-14T00:14:37;2.47;;;1.63;;
48207;SDS011;33997;53.278;9.708;2023-12-14T00:17:02;2.38;;;1.20;;
48207;SDS011;33997;53.278;9.708;2023-12-14T00:19:28;2.60;;;1.20;;
48207;SDS011;33997;53.278;9.708;2023-12-14T00:21:53;1.30;;;0.75;;
48207;SDS011;33997;53.278;9.708;2023-12-14T00:24:19;3.13;;;1.40;;
48207;SDS011;33997;53.278;9.708;2023-12-14T00:26:44;5.03;;;1.30;;
48207;SDS011;33997;53.278;9.708;2023-12-14T00:29:09;3.15;;;1.20;;
48207;SDS011;33997;53.278;9.708;2023-12-14T00:31:35;2.63;;;1.00;;
48207;SDS011;33997;53.278;9.708;2023-12-14T00:34:00;2.97;;;1.38;;
48207;SDS011;33997;53.278;9.708;2023-12-14T00:36:26;2.65;;;1.20;;
48207;SDS011;33997;53.278;9.708;2023-12-14T00:38:51;1.90;;;1.10;;
48207;SDS011;33997;53.278;9.708;2023-12-14T00:41:17;2.33;;;1.15;;
48207;SDS011;33997;53.278;9.708;2023-12-14T00:43:42;2.60;;;1.30;;
48207;SDS011;33997;53.278;9.708;2023-12-14T00:46:08;1.55;;;0.73;;
48207;SDS011;33997;53.278;9.708;2023-12-14T00:48:34;1.63;;;1.00;;
48207;SDS011;33997;53.278;9.708;2023-12-14T00:50:59;3.83;;;1.40;;
48207;SDS011;33997;53.278;9.708;2023-12-14T00:53:25;3.22;;;1.13;;
48207;SDS011;33997;53.278;9.708;2023-12-14T00:55:50;2.35;;;1.15;;
48207;SDS011;33997;53.278;9.708;2023-12-14T00:58:16;2.35;;;0.95;;
48207;SDS011;33997;53.278;9.708;2023-12-14T01:00:41;1.65;;;0.82;;
48207;SDS011;33997;53.278;9.708;2023-12-14T01:03:07;1.13;;;0.63;;
48207;SDS011;33997;53.278;9.708;2023-12-14T01:05:32;2.00;;;1.10;;
48207;SDS011;33997;53.278;9.708;2023-12-14T01:07:58;1.80;;;0.82;;
48207;SDS011;33997;53.278;9.708;2023-12-14T01:10:23;2.83;;;1.35;;
48207;SDS011;33997;53.278;9.708;2023-12-14T01:12:49;2.00;;;1.02;;
48207;SDS011;33997;53.278;9.708;2023-12-14T01:15:15;1.85;;;0.98;;
48207;SDS011;33997;53.278;9.708;2023-12-14T01:17:40;1.58;;;0.90;;
48207;SDS011;33997;53.278;9.708;2023-12-14T01:20:06;3.75;;;0.70;;
48207;SDS011;33997;53.278;9.708;2023-12-14T01:22:32;3.05;;;1.10;;
48207;SDS011;33997;53.278;9.708;2023-12-14T01:24:58;1.98;;;1.00;;
48207;SDS011;33997;53.278;9.708;2023-12-14T01:27:24;2.00;;;0.90;;
48207;SDS011;33997;53.278;9.708;2023-12-14T01:29:50;2.17;;;1.10;;
48207;SDS011;33997;53.278;9.708;2023-12-14T01:32:15;1.95;;;0.95;;
48207;SDS011;33997;53.278;9.708;2023-12-14T01:34:41;1.60;;;0.85;;
48207;SDS011;33997;53.278;9.708;2023-12-14T01:37:06;2.25;;;1.10;;
48207;SDS011;33997;53.278;9.708;2023-12-14T01:39:32;1.55;;;0.73;;
48207;SDS011;33997;53.278;9.708;2023-12-14T01:41:57;1.40;;;0.63;;
48207;SDS011;33997;53.278;9.708;2023-12-14T01:44:23;1.67;;;0.90;;
48207;SDS011;33997;53.278;9.708;2023-12-14T01:46:49;1.60;;;0.70;;
48207;SDS011;33997;53.278;9.708;2023-12-14T01:49:14;1.75;;;0.73;;
48207;SDS011;33997;53.278;9.708;2023-12-14T01:51:40;2.80;;;0.90;;
48207;SDS011;33997;53.278;9.708;2023-12-14T01:54:05;2.50;;;0.98;;
48207;SDS011;33997;53.278;9.708;2023-12-14T01:56:31;1.95;;;1.15;;
48207;SDS011;33997;53.278;9.708;2023-12-14T01:58:56;2.53;;;0.90;;
48207;SDS011;33997;53.278;9.708;2023-12-14T02:01:23;2.33;;;1.10;;
48207;SDS011;33997;53.278;9.708;2023-12-14T02:06:31;1.40;;;0.82;;
48207;SDS011;33997;53.278;9.708;2023-12-14T02:08:56;2.13;;;0.80;;
48207;SDS011;33997;53.278;9.708;2023-12-14T02:11:22;1.38;;;0.68;;
48207;SDS011;33997;53.278;9.708;2023-12-14T02:13:47;1.52;;;0.73;;
48207;SDS011;33997;53.278;9.708;2023-12-14T02:16:13;0.90;;;0.55;;
48207;SDS011;33997;53.278;9.708;2023-12-14T02:18:39;1.17;;;0.70;;
48207;SDS011;33997;53.278;9.708;2023-12-14T02:21:04;0.82;;;0.52;;
48207;SDS011;33997;53.278;9.708;2023-12-14T02:23:30;2.58;;;0.90;;
48207;SDS011;33997;53.278;9.708;2023-12-14T02:25:55;1.10;;;0.60;;
48207;SDS011;33997;53.278;9.708;2023-12-14T02:28:21;1.73;;;0.63;;
48207;SDS011;33997;53.278;9.708;2023-12-14T02:30:46;1.20;;;0.70;;
48207;SDS011;33997;53.278;9.708;2023-12-14T02:33:12;1.55;;;0.82;;
48207;SDS011;33997;53.278;9.708;2023-12-14T02:35:37;1.70;;;0.70;;
48207;SDS011;33997;53.278;9.708;2023-12-14T02:38:03;1.38;;;0.80;;
48207;SDS011;33997;53.278;9.708;2023-12-14T02:40:28;1.50;;;0.82;;
48207;SDS011;33997;53.278;9.708;2023-12-14T02:42:53;1.13;;;0.60;;
48207;SDS011;33997;53.278;9.708;2023-12-14T02:45:19;0.70;;;0.57;;
48207;SDS011;33997;53.278;9.708;2023-12-14T02:47:44;1.38;;;0.50;;
48207;SDS011;33997;53.278;9.708;2023-12-14T02:50:12;2.10;;;0.50;;
48207;SDS011;33997;53.278;9.708;2023-12-14T02:52:38;1.52;;;0.73;;
48207;SDS011;33997;53.278;9.708;2023-12-14T02:55:03;1.77;;;0.80;;
48207;SDS011;33997;53.278;9.708;2023-12-14T02:57:29;1.60;;;0.93;;
48207;SDS011;33997;53.278;9.708;2023-12-14T02:59:54;0.85;;;0.43;;
48207;SDS011;33997;53.278;9.708;2023-12-14T03:02:20;1.88;;;0.57;;
48207;SDS011;33997;53.278;9.708;2023-12-14T03:04:46;0.45;;;0.45;;
48207;SDS011;33997;53.278;9.708;2023-12-14T03:07:11;2.42;;;0.68;;
48207;SDS011;33997;53.278;9.708;2023-12-14T03:09:39;0.57;;;0.57;;
48207;SDS011;33997;53.278;9.708;2023-12-14T03:12:06;1.17;;;0.63;;
48207;SDS011;33997;53.278;9.708;2023-12-14T03:14:32;0.63;;;0.30;;
48207;SDS011;33997;53.278;9.708;2023-12-14T03:16:58;1.38;;;0.80;;
48207;SDS011;33997;53.278;9.708;2023-12-14T03:19:24;0.75;;;0.47;;
48207;SDS011;33997;53.278;9.708;2023-12-14T03:21:49;1.05;;;0.93;;
48207;SDS011;33997;53.278;9.708;2023-12-14T03:24:15;1.10;;;0.65;;
48207;SDS011;33997;53.278;9.708;2023-12-14T03:26:40;2.33;;;0.50;;
48207;SDS011;33997;53.278;9.708;2023-12-14T03:29:06;0.68;;;0.50;;
48207;SDS011;33997;53.278;9.708;2023-12-14T03:31:32;1.15;;;0.40;;
48207;SDS011;33997;53.278;9.708;2023-12-14T03:33:58;0.85;;;0.55;;
48207;SDS011;33997;53.278;9.708;2023-12-14T03:36:24;0.98;;;0.57;;
48207;SDS011;33997;53.278;9.708;2023-12-14T03:38:51;0.50;;;0.50;;
48207;SDS011;33997;53.278;9.708;2023-12-14T03:41:17;0.77;;;0.40;;
48207;SDS011;33997;53.278;9.708;2023-12-14T03:43:42;1.13;;;0.73;;
48207;SDS011;33997;53.278;9.708;2023-12-14T03:46:09;1.60;;;0.60;;
48207;SDS011;33997;53.278;9.708;2023-12-14T03:48:34;1.25;;;0.90;;
48207;SDS011;33997;53.278;9.708;2023-12-14T03:51:03;1.10;;;0.57;;
48207;SDS011;33997;53.278;9.708;2023-12-14T03:53:29;0.80;;;0.50;;
48207;SDS011;33997;53.278;9.708;2023-12-14T03:55:55;0.77;;;0.68;;
48207;SDS011;33997;53.278;9.708;2023-12-14T03:58:22;1.48;;;0.68;;
48207;SDS011;33997;53.278;9.708;2023-12-14T04:00:47;0.82;;;0.52;;
48207;SDS011;33997;53.278;9.708;2023-12-14T04:03:13;0.77;;;0.57;;
48207;SDS011;33997;53.278;9.708;2023-12-14T04:05:38;1.55;;;0.63;;
48207;SDS011;33997;53.278;9.708;2023-12-14T04:08:04;1.33;;;0.60;;
48207;SDS011;33997;53.278;9.708;2023-12-14T04:10:30;1.85;;;0.65;;
48207;SDS011;33997;53.278;9.708;2023-12-14T04:12:55;1.63;;;0.80;;
48207;SDS011;33997;53.278;9.708;2023-12-14T04:15:21;0.98;;;0.77;;
48207;SDS011;33997;53.278;9.708;2023-12-14T04:17:47;0.75;;;0.60;;
48207;SDS011;33997;53.278;9.708;2023-12-14T04:20:12;1.77;;;0.77;;
48207;SDS011;33997;53.278;9.708;2023-12-14T04:22:40;1.45;;;0.80;;
48207;SDS011;33997;53.278;9.708;2023-12-14T04:25:06;3.08;;;1.15;;
48207;SDS011;33997;53.278;9.708;2023-12-14T04:27:32;0.90;;;0.50;;
48207;SDS011;33997;53.278;9.708;2023-12-14T04:29:58;0.57;;;0.50;;
48207;SDS011;33997;53.278;9.708;2023-12-14T04:32:23;1.23;;;0.63;;
48207;SDS011;33997;53.278;9.708;2023-12-14T04:34:49;1.80;;;0.75;;
48207;SDS011;33997;53.278;9.708;2023-12-14T04:37:14;1.05;;;0.82;;
48207;SDS011;33997;53.278;9.708;2023-12-14T04:39:39;1.30;;;0.70;;
48207;SDS011;33997;53.278;9.708;2023-12-14T04:42:05;1.25;;;0.63;;
48207;SDS011;33997;53.278;9.708;2023-12-14T04:44:30;1.10;;;0.65;;
48207;SDS011;33997;53.278;9.708;2023-12-14T04:46:56;1.20;;;0.82;;
48207;SDS011;33997;53.278;9.708;2023-12-14T04:49:21;3.08;;;1.10;;
48207;SDS011;33997;53.278;9.708;2023-12-14T04:51:47;1.52;;;0.77;;
48207;SDS011;33997;53.278;9.708;2023-12-14T04:54:12;1.05;;;0.95;;
48207;SDS011;33997;53.278;9.708;2023-12-14T04:56:38;1.50;;;0.80;;
48207;SDS011;33997;53.278;9.708;2023-12-14T04:59:03;1.23;;;0.52;;
48207;SDS011;33997;53.278;9.708;2023-12-14T05:01:29;1.98;;;1.05;;
48207;SDS011;33997;53.278;9.708;2023-12-14T05:03:54;1.55;;;0.70;;
48207;SDS011;33997;53.278;9.708;2023-12-14T05:06:20;2.05;;;0.60;;
48207;SDS011;33997;53.278;9.708;2023-12-14T05:08:45;1.10;;;0.57;;
48207;SDS011;33997;53.278;9.708;2023-12-14T05:11:14;2.50;;;0.75;;
48207;SDS011;33997;53.278;9.708;2023-12-14T05:13:40;3.47;;;1.58;;
48207;SDS011;33997;53.278;9.708;2023-12-14T05:16:05;7.30;;;2.15;;
48207;SDS011;33997;53.278;9.708;2023-12-14T05:18:31;4.50;;;1.85;;
48207;SDS011;33997;53.278;9.708;2023-12-14T05:20:57;3.15;;;0.85;;
48207;SDS011;33997;53.278;9.708;2023-12-14T05:23:24;4.47;;;1.85;;
48207;SDS011;33997;53.278;9.708;2023-12-14T05:25:49;3.30;;;1.55;;
48207;SDS011;33997;53.278;9.708;2023-12-14T05:28:15;5.03;;;1.90;;
48207;SDS011;33997;53.278;9.708;2023-12-14T05:30:41;3.80;;;1.40;;
48207;SDS011;33997;53.278;9.708;2023-12-14T05:33:06;2.53;;;1.45;;
48207;SDS011;33997;53.278;9.708;2023-12-14T05:35:32;1.60;;;0.80;;
48207;SDS011;33997;53.278;9.708;2023-12-14T05:37:57;1.17;;;0.65;;
48207;SDS011;33997;53.278;9.708;2023-12-14T05:40:23;1.70;;;0.90;;
48207;SDS011;33997;53.278;9.708;2023-12-14T05:42:48;2.08;;;1.08;;
48207;SDS011;33997;53.278;9.708;2023-12-14T05:45:14;1.92;;;0.75;;
48207;SDS011;33997;53.278;9.708;2023-12-14T05:47:39;1.25;;;0.80;;
48207;SDS011;33997;53.278;9.708;2023-12-14T05:50:06;2.35;;;0.80;;
48207;SDS011;33997;53.278;9.708;2023-12-14T05:52:34;1.52;;;0.55;;
48207;SDS011;33997;53.278;9.708;2023-12-14T05:55:00;3.33;;;0.85;;
48207;SDS011;33997;53.278;9.708;2023-12-14T05:57:25;1.67;;;0.60;;
48207;SDS011;33997;53.278;9.708;2023-12-14T05:59:51;1.05;;;0.70;;
48207;SDS011;33997;53.278;9.708;2023-12-14T06:02:16;1.65;;;0.80;;
48207;SDS011;33997;53.278;9.708;2023-12-14T06:04:42;2.03;;;0.98;;
48207;SDS011;33997;53.278;9.708;2023-12-14T06:07:07;1.58;;;0.73;;
48207;SDS011;33997;53.278;9.708;2023-12-14T06:09:33;1.85;;;0.90;;
48207;SDS011;33997;53.278;9.708;2023-12-14T06:12:02;2.05;;;0.85;;
48207;SDS011;33997;53.278;9.708;2023-12-14T06:14:29;2.05;;;0.90;;
48207;SDS011;33997;53.278;9.708;2023-12-14T06:16:54;1.45;;;1.00;;
48207;SDS011;33997;53.278;9.708;2023-12-14T06:19:20;2.33;;;1.05;;
48207;SDS011;33997;53.278;9.708;2023-12-14T06:21:45;3.47;;;1.40;;
48207;SDS011;33997;53.278;9.708;2023-12-14T06:24:11;1.42;;;0.73;;
48207;SDS011;33997;53.278;9.708;2023-12-14T06:26:40;1.75;;;0.95;;
48207;SDS011;33997;53.278;9.708;2023-12-14T06:29:09;1.73;;;0.95;;
48207;SDS011;33997;53.278;9.708;2023-12-14T06:31:36;1.35;;;0.90;;
48207;SDS011;33997;53.278;9.708;2023-12-14T06:34:02;1.55;;;0.90;;
48207;SDS011;33997;53.278;9.708;2023-12-14T06:36:29;1.23;;;0.73;;
48207;SDS011;33997;53.278;9.708;2023-12-14T06:38:55;1.77;;;0.68;;
48207;SDS011;33997;53.278;9.708;2023-12-14T06:41:22;1.88;;;1.00;;
48207;SDS011;33997;53.278;9.708;2023-12-14T06:43:48;2.22;;;0.95;;
48207;SDS011;33997;53.278;9.708;2023-12-14T06:46:14;1.77;;;0.90;;
48207;SDS011;33997;53.278;9.708;2023-12-14T06:48:40;1.83;;;1.08;;
48207;SDS011;33997;53.278;9.708;2023-12-14T06:51:06;3.00;;;1.10;;
48207;SDS011;33997;53.278;9.708;2023-12-14T06:53:31;1.73;;;0.95;;
48207;SDS011;33997;53.278;9.708;2023-12-14T06:55:57;2.75;;;0.95;;
48207;SDS011;33997;53.278;9.708;2023-12-14T06:58:22;2.60;;;1.20;;
48207;SDS011;33997;53.278;9.708;2023-12-14T07:00:48;1.65;;;0.90;;
48207;SDS011;33997;53.278;9.708;2023-12-14T07:03:13;2.63;;;1.15;;
48207;SDS011;33997;53.278;9.708;2023-12-14T07:05:39;3.13;;;1.63;;
48207;SDS011;33997;53.278;9.708;2023-12-14T07:08:04;1.85;;;0.68;;
48207;SDS011;33997;53.278;9.708;2023-12-14T07:10:30;1.67;;;0.90;;
48207;SDS011;33997;53.278;9.708;2023-12-14T07:12:55;1.13;;;0.70;;
48207;SDS011;33997;53.278;9.708;2023-12-14T07:15:21;2.00;;;0.80;;
48207;SDS011;33997;53.278;9.708;2023-12-14T07:17:46;2.78;;;1.20;;
48207;SDS011;33997;53.278;9.708;2023-12-14T07:20:12;2.25;;;0.80;;
48207;SDS011;33997;53.278;9.708;2023-12-14T07:22:38;2.22;;;0.95;;
48207;SDS011;33997;53.278;9.708;2023-12-14T07:25:03;3.67;;;1.08;;
48207;SDS011;33997;53.278;9.708;2023-12-14T07:27:29;2.85;;;1.08;;
48207;SDS011;33997;53.278;9.708;2023-12-14T07:29:54;1.33;;;0.90;;
48207;SDS011;33997;53.278;9.708;2023-12-14T07:32:20;1.98;;;0.95;;
48207;SDS011;33997;53.278;9.708;2023-12-14T07:34:46;1.65;;;0.98;;
48207;SDS011;33997;53.278;9.708;2023-12-14T07:37:12;2.22;;;1.15;;
48207;SDS011;33997;53.278;9.708;2023-12-14T07:39:37;1.77;;;0.85;;
48207;SDS011;33997;53.278;9.708;2023-12-14T07:42:03;2.00;;;0.80;;
48207;SDS011;33997;53.278;9.708;2023-12-14T07:44:29;2.28;;;1.15;;
48207;SDS011;33997;53.278;9.708;2023-12-14T07:46:55;1.42;;;0.88;;
48207;SDS011;33997;53.278;9.708;2023-12-14T07:49:21;1.52;;;0.90;;
48207;SDS011;33997;53.278;9.708;2023-12-14T07:51:48;3.47;;;1.20;;
48207;SDS011;33997;53.278;9.708;2023-12-14T07:54:14;3.05;;;0.93;;
48207;SDS011;33997;53.278;9.708;2023-12-14T07:56:40;2.55;;;1.17;;
48207;SDS011;33997;53.278;9.708;2023-12-14T07:59:05;2.35;;;0.90;;
48207;SDS011;33997;53.278;9.708;2023-12-14T08:01:32;2.88;;;0.90;;
48207;SDS011;33997;53.278;9.708;2023-12-14T08:03:58;2.55;;;1.05;;
48207;SDS011;33997;53.278;9.708;2023-12-14T08:06:24;3.00;;;1.20;;
48207;SDS011;33997;53.278;9.708;2023-12-14T08:08:49;3.15;;;1.35;;
48207;SDS011;33997;53.278;9.708;2023-12-14T08:11:15;2.80;;;1.45;;
48207;SDS011;33997;53.278;9.708;2023-12-14T08:13:40;3.00;;;1.40;;
48207;SDS011;33997;53.278;9.708;2023-12-14T08:16:07;3.13;;;1.50;;
48207;SDS011;33997;53.278;9.708;2023-12-14T08:18:33;2.30;;;1.27;;
48207;SDS011;33997;53.278;9.708;2023-12-14T08:20:58;2.63;;;1.25;;
48207;SDS011;33997;53.278;9.708;2023-12-14T08:23:24;3.55;;;1.88;;
48207;SDS011;33997;53.278;9.708;2023-12-14T08:25:52;2.13;;;1.25;;
48207;SDS011;33997;53.278;9.708;2023-12-14T08:28:21;3.22;;;1.52;;
48207;SDS011;33997;53.278;9.708;2023-12-14T08:30:47;3.30;;;1.63;;
48207;SDS011;33997;53.278;9.708;2023-12-14T08:33:13;2.20;;;1.30;;
48207;SDS011;33997;53.278;9.708;2023-12-14T08:35:38;3.28;;;1.83;;
48207;SDS011;33997;53.278;9.708;2023-12-14T08:38:04;3.55;;;1.88;;
48207;SDS011;33997;53.278;9.708;2023-12-14T08:40:29;3.42;;;1.23;;
48207;SDS011;33997;53.278;9.708;2023-12-14T08:42:55;3.03;;;1.50;;
48207;SDS011;33997;53.278;9.708;2023-12-14T08:45:22;3.28;;;1.60;;
48207;SDS011;33997;53.278;9.708;2023-12-14T08:47:47;3.97;;;1.85;;
48207;SDS011;33997;53.278;9.708;2023-12-14T08:50:12;3.58;;;1.50;;
48207;SDS011;33997;53.278;9.708;2023-12-14T08:52:39;2.47;;;1.40;;
48207;SDS011;33997;53.278;9.708;2023-12-14T08:55:05;5.00;;;2.15;;
48207;SDS011;33997;53.278;9.708;2023-12-14T08:57:30;3.75;;;1.85;;
48207;SDS011;33997;53.278;9.708;2023-12-14T08:59:56;2.63;;;1.15;;
48207;SDS011;33997;53.278;9.708;2023-12-14T09:02:22;3.90;;;1.75;;
48207;SDS011;33997;53.278;9.708;2023-12-14T09:04:47;4.38;;;1.75;;
48207;SDS011;33997;53.278;9.708;2023-12-14T09:07:13;3.30;;;1.73;;
48207;SDS011;33997;53.278;9.708;2023-12-14T09:09:38;3.65;;;1.50;;
48207;SDS011;33997;53.278;9.708;2023-12-14T09:12:04;4.05;;;1.73;;
48207;SDS011;33997;53.278;9.708;2023-12-14T09:14:29;5.13;;;2.03;;
48207;SDS011;33997;53.278;9.708;2023-12-14T09:16:55;4.35;;;1.70;;
48207;SDS011;33997;53.278;9.708;2023-12-14T09:19:21;5.03;;;2.10;;
48207;SDS011;33997;53.278;9.708;2023-12-14T09:21:46;4.05;;;1.83;;
48207;SDS011;33997;53.278;9.708;2023-12-14T09:24:12;5.05;;;1.67;;
48207;SDS011;33997;53.278;9.708;2023-12-14T09:26:37;4.90;;;1.75;;
48207;SDS011;33997;53.278;9.708;2023-12-14T09:29:03;3.28;;;1.70;;
48207;SDS011;33997;53.278;9.708;2023-12-14T09:31:28;5.97;;;2.05;;
48207;SDS011;33997;53.278;9.708;2023-12-14T09:33:54;3.78;;;2.00;;
48207;SDS011;33997;53.278;9.708;2023-12-14T09:36:19;5.03;;;2.42;;
48207;SDS011;33997;53.278;9.708;2023-12-14T09:38:45;5.45;;;1.77;;
48207;SDS011;33997;53.278;9.708;2023-12-14T09:41:10;4.15;;;1.80;;
48207;SDS011;33997;53.278;9.708;2023-12-14T09:43:36;4.78;;;2.58;;
48207;SDS011;33997;53.278;9.708;2023-12-14T09:46:02;4.20;;;2.00;;
48207;SDS011;33997;53.278;9.708;2023-12-14T09:48:28;3.75;;;1.83;;
48207;SDS011;33997;53.278;9.708;2023-12-14T09:50:54;5.15;;;2.17;;
48207;SDS011;33997;53.278;9.708;2023-12-14T09:53:20;4.32;;;2.05;;
48207;SDS011;33997;53.278;9.708;2023-12-14T09:55:46;5.63;;;2.20;;
48207;SDS011;33997;53.278;9.708;2023-12-14T09:58:11;6.07;;;2.55;;
48207;SDS011;33997;53.278;9.708;2023-12-14T10:00:38;4.45;;;2.20;;
48207;SDS011;33997;53.278;9.708;2023-12-14T10:03:24;3.92;;;2.28;;
48207;SDS011;33997;53.278;9.708;2023-12-14T10:05:56;3.75;;;1.63;;
48207;SDS011;33997;53.278;9.708;2023-12-14T10:08:23;3.78;;;2.10;;
48207;SDS011;33997;53.278;9.708;2023-12-14T10:10:50;5.18;;;1.92;;
48207;SDS011;33997;53.278;9.708;2023-12-14T10:13:18;4.80;;;2.33;;
48207;SDS011;33997;53.278;9.708;2023-12-14T10:15:45;5.88;;;2.70;;
48207;SDS011;33997;53.278;9.708;2023-12-14T10:18:14;4.88;;;2.17;;
48207;SDS011;33997;53.278;9.708;2023-12-14T10:20:49;3.88;;;1.90;;
48207;SDS011;33997;53.278;9.708;2023-12-14T10:23:15;4.88;;;2.30;;
48207;SDS011;33997;53.278;9.708;2023-12-14T10:25:42;3.97;;;2.22;;
48207;SDS011;33997;53.278;9.708;2023-12-14T10:28:11;3.90;;;1.92;;
48207;SDS011;33997;53.278;9.708;2023-12-14T10:30:38;4.15;;;1.98;;
48207;SDS011;33997;53.278;9.708;2023-12-14T10:33:04;4.88;;;2.47;;
48207;SDS011;33997;53.278;9.708;2023-12-14T10:35:30;4.68;;;1.95;;
48207;SDS011;33997;53.278;9.708;2023-12-14T10:37:55;3.83;;;2.00;;
48207;SDS011;33997;53.278;9.708;2023-12-14T10:40:26;6.22;;;2.33;;
48207;SDS011;33997;53.278;9.708;2023-12-14T10:42:53;6.25;;;2.60;;
48207;SDS011;33997;53.278;9.708;2023-12-14T10:45:24;4.70;;;2.13;;
48207;SDS011;33997;53.278;9.708;2023-12-14T10:47:53;5.03;;;2.13;;
48207;SDS011;33997;53.278;9.708;2023-12-14T10:50:19;4.38;;;2.05;;
48207;SDS011;33997;53.278;9.708;2023-12-14T10:52:45;4.97;;;2.45;;
48207;SDS011;33997;53.278;9.708;2023-12-14T10:55:13;4.55;;;2.13;;
48207;SDS011;33997;53.278;9.708;2023-12-14T10:57:46;4.50;;;2.30;;
48207;SDS011;33997;53.278;9.708;2023-12-14T11:00:11;4.75;;;2.30;;
48207;SDS011;33997;53.278;9.708;2023-12-14T11:02:39;4.47;;;2.08;;
48207;SDS011;33997;53.278;9.708;2023-12-14T11:05:07;3.33;;;1.60;;
48207;SDS011;33997;53.278;9.708;2023-12-14T11:07:50;4.97;;;2.13;;
48207;SDS011;33997;53.278;9.708;2023-12-14T11:10:28;4.63;;;2.08;;
48207;SDS011;33997;53.278;9.708;2023-12-14T11:13:08;5.47;;;2.15;;
48207;SDS011;33997;53.278;9.708;2023-12-14T11:15:36;3.90;;;1.85;;
48207;SDS011;33997;53.278;9.708;2023-12-14T11:23:17;4.60;;;1.90;;
48207;SDS011;33997;53.278;9.708;2023-12-14T11:25:55;6.57;;;2.67;;
48207;SDS011;33997;53.278;9.708;2023-12-14T11:28:28;4.53;;;2.08;;
48207;SDS011;33997;53.278;9.708;2023-12-14T11:30:55;5.68;;;2.20;;
48207;SDS011;33997;53.278;9.708;2023-12-14T11:33:20;4.53;;;1.88;;
48207;SDS011;33997;53.278;9.708;2023-12-14T11:35:46;5.30;;;1.90;;
48207;SDS011;33997;53.278;9.708;2023-12-14T11:38:12;5.30;;;2.20;;
48207;SDS011;33997;53.278;9.708;2023-12-14T11:40:47;3.38;;;1.88;;
48207;SDS011;33997;53.278;9.708;2023-12-14T11:43:16;4.43;;;2.28;;
48207;SDS011;33997;53.278;9.708;2023-12-14T11:45:45;3.38;;;1.33;;
48207;SDS011;33997;53.278;9.708;2023-12-14T11:48:11;4.28;;;2.13;;
48207;SDS011;33997;53.278;9.708;2023-12-14T11:50:37;4.40;;;1.98;;
48207;SDS011;33997;53.278;9.708;2023-12-14T11:53:03;4.15;;;1.90;;
48207;SDS011;33997;53.278;9.708;2023-12-14T11:55:30;4.00;;;1.80;;
48207;SDS011;33997;53.278;9.708;2023-12-14T11:57:56;4.07;;;1.60;;
48207;SDS011;33997;53.278;9.708;2023-12-14T12:00:23;4.18;;;2.15;;
48207;SDS011;33997;53.278;9.708;2023-12-14T12:05:43;4.20;;;2.00;;
48207;SDS011;33997;53.278;9.708;2023-12-14T12:08:11;4.30;;;1.85;;
48207;SDS011;33997;53.278;9.708;2023-12-14T12:10:37;3.15;;;1.55;;
48207;SDS011;33997;53.278;9.708;2023-12-14T12:13:04;4.45;;;1.98;;
48207;SDS011;33997;53.278;9.708;2023-12-14T12:15:35;3.22;;;1.85;;
48207;SDS011;33997;53.278;9.708;2023-12-14T12:18:12;3.13;;;1.85;;
48207;SDS011;33997;53.278;9.708;2023-12-14T12:20:38;3.95;;;1.92;;
48207;SDS011;33997;53.278;9.708;2023-12-14T12:23:04;3.50;;;1.55;;
48207;SDS011;33997;53.278;9.708;2023-12-14T12:25:30;4.32;;;2.00;;
48207;SDS011;33997;53.278;9.708;2023-12-14T12:28:00;4.47;;;2.15;;
48207;SDS011;33997;53.278;9.708;2023-12-14T12:30:26;3.83;;;1.85;;
48207;SDS011;33997;53.278;9.708;2023-12-14T12:32:52;3.65;;;1.67;;
48207;SDS011;33997;53.278;9.708;2023-12-14T12:35:21;6.15;;;1.73;;
48207;SDS011;33997;53.278;9.708;2023-12-14T12:37:48;4.50;;;2.05;;
48207;SDS011;33997;53.278;9.708;2023-12-14T12:40:18;4.55;;;2.22;;
48207;SDS011;33997;53.278;9.708;2023-12-14T12:42:47;3.53;;;1.60;;
48207;SDS011;33997;53.278;9.708;2023-12-14T12:45:14;5.75;;;2.38;;
48207;SDS011;33997;53.278;9.708;2023-12-14T12:47:42;4.40;;;2.40;;
48207;SDS011;33997;53.278;9.708;2023-12-14T12:50:07;2.58;;;1.73;;
48207;SDS011;33997;53.278;9.708;2023-12-14T12:52:33;4.93;;;1.75;;
48207;SDS011;33997;53.278;9.708;2023-12-14T12:54:58;3.35;;;1.73;;
48207;SDS011;33997;53.278;9.708;2023-12-14T12:57:25;3.63;;;2.10;;
48207;SDS011;33997;53.278;9.708;2023-12-14T12:59:50;4.18;;;2.17;;
48207;SDS011;33997;53.278;9.708;2023-12-14T13:02:16;3.85;;;1.98;;
48207;SDS011;33997;53.278;9.708;2023-12-14T13:04:42;4.68;;;1.92;;
48207;SDS011;33997;53.278;9.708;2023-12-14T13:07:08;4.25;;;2.00;;
48207;SDS011;33997;53.278;9.708;2023-12-14T13:09:33;3.92;;;2.15;;
48207;SDS011;33997;53.278;9.708;2023-12-14T13:11:58;4.20;;;1.95;;
48207;SDS011;33997;53.278;9.708;2023-12-14T13:14:24;4.90;;;2.22;;
48207;SDS011;33997;53.278;9.708;2023-12-14T13:16:50;3.25;;;2.05;;
48207;SDS011;33997;53.278;9.708;2023-12-14T13:19:15;5.05;;;2.10;;
48207;SDS011;33997;53.278;9.708;2023-12-14T13:21:41;4.72;;;2.30;;
48207;SDS011;33997;53.278;9.708;2023-12-14T13:24:06;2.65;;;1.52;;
48207;SDS011;33997;53.278;9.708;2023-12-14T13:26:32;3.97;;;1.92;;
48207;SDS011;33997;53.278;9.708;2023-12-14T13:28:58;2.50;;;1.58;;
48207;SDS011;33997;53.278;9.708;2023-12-14T13:31:24;3.72;;;2.08;;
48207;SDS011;33997;53.278;9.708;2023-12-14T13:33:50;4.40;;;1.98;;
48207;SDS011;33997;53.278;9.708;2023-12-14T13:36:15;6.57;;;2.65;;
48207;SDS011;33997;53.278;9.708;2023-12-14T13:38:41;4.57;;;1.88;;
48207;SDS011;33997;53.278;9.708;2023-12-14T13:41:07;5.57;;;1.85;;
48207;SDS011;33997;53.278;9.708;2023-12-14T13:43:33;4.75;;;2.17;;
48207;SDS011;33997;53.278;9.708;2023-12-14T13:45:58;5.53;;;2.83;;
48207;SDS011;33997;53.278;9.708;2023-12-14T13:48:24;7.35;;;3.28;;
48207;SDS011;33997;53.278;9.708;2023-12-14T13:50:50;4.55;;;2.40;;
48207;SDS011;33997;53.278;9.708;2023-12-14T13:53:16;4.25;;;1.95;;
48207;SDS011;33997;53.278;9.708;2023-12-14T13:55:42;4.75;;;2.42;;
48207;SDS011;33997;53.278;9.708;2023-12-14T13:58:07;4.45;;;2.25;;
48207;SDS011;33997;53.278;9.708;2023-12-14T14:00:33;4.28;;;2.22;;
48207;SDS011;33997;53.278;9.708;2023-12-14T14:02:59;7.53;;;2.35;;
48207;SDS011;33997;53.278;9.708;2023-12-14T14:05:25;4.43;;;1.92;;
48207;SDS011;33997;53.278;9.708;2023-12-14T14:07:51;3.55;;;1.95;;
48207;SDS011;33997;53.278;9.708;2023-12-14T14:10:17;3.88;;;2.15;;
48207;SDS011;33997;53.278;9.708;2023-12-14T14:12:43;4.40;;;1.85;;
48207;SDS011;33997;53.278;9.708;2023-12-14T14:15:08;3.90;;;1.77;;
48207;SDS011;33997;53.278;9.708;2023-12-14T14:17:35;4.03;;;1.98;;
48207;SDS011;33997;53.278;9.708;2023-12-14T14:20:00;3.10;;;1.77;;
48207;SDS011;33997;53.278;9.708;2023-12-14T14:22:26;2.90;;;1.60;;
48207;SDS011;33997;53.278;9.708;2023-12-14T14:24:51;8.88;;;3.15;;
48207;SDS011;33997;53.278;9.708;2023-12-14T14:27:17;8.10;;;3.22;;
48207;SDS011;33997;53.278;9.708;2023-12-14T14:29:42;6.78;;;3.17;;
48207;SDS011;33997;53.278;9.708;2023-12-14T14:32:08;3.75;;;2.30;;
48207;SDS011;33997;53.278;9.708;2023-12-14T14:34:33;4.80;;;2.22;;
48207;SDS011;33997;53.278;9.708;2023-12-14T14:37:00;7.85;;;3.83;;
48207;SDS011;33997;53.278;9.708;2023-12-14T14:39:26;8.48;;;3.50;;
48207;SDS011;33997;53.278;9.708;2023-12-14T14:41:51;11.25;;;3.70;;
48207;SDS011;33997;53.278;9.708;2023-12-14T14:44:17;6.13;;;2.90;;
48207;SDS011;33997;53.278;9.708;2023-12-14T14:46:43;9.80;;;3.75;;
48207;SDS011;33997;53.278;9.708;2023-12-14T14:49:08;14.50;;;6.28;;
48207;SDS011;33997;53.278;9.708;2023-12-14T14:51:34;14.40;;;6.60;;